Westhampton Beach, NY

6:26 AM EDT on May 07, 2015 (GMT -0400)
Phillips Creek | | Change Station
CLOSE
Current Station
Personal Weather Station
Location: East Quogue, NY
Elevation: 20 ft
Nearby Weather Stations

Elev 20 ft 40.84 °N, 72.59 °W | Updated 59 seconds ago

Clear
Clear
42.3 °F
Feels Like 42 °F
N
0.0
Wind Variable Wind from ESE
Gusts 1.0 mph

Today
High -- | Low -- °F
--% Chance of Precip.
Yesterday
High -- | Low -- °F
Precip. -- in
5:42 AM 7:52 PM
Waning Gibbous, 89% visible
Pressure 30.23 in
Visibility 10.0 miles
Clouds Clear
Windchill 42 °F
Dew Point 40 °F
Humidity 93%
Rainfall 0.00 in
Snow Depth Not available.
UV 0 out of 12
Pollen 8.80 out of 12
Air Quality Not available.
Flu Activity Widespread
METAR KFOK 070953Z 00000KT 10SM CLR 02/00 A3023 RMK AO2 SLP236 T00170000

More Conditions Fewer Conditions

Pressure 30.23 in
Visibility 10.0 miles
Clouds Clear
Windchill 42 °F
Dew Point 40 °F
Humidity 93%
Rainfall 0.00 in
Snow Depth Not available.
UV 0 out of 12
Pollen 8.80 out of 12
Air Quality Not available.
Flu Activity Widespread
METAR KFOK 070953Z 00000KT 10SM CLR 02/00 A3023 RMK AO2 SLP236 T00170000

More Conditions Fewer Conditions

10-Day Weather Forecast

Almanac

Astronomy

May. 07, 2015 Rise Set
Actual Time
Civil Twilight
Nautical Twilight
Astronomical Twilight
Moon
Length of Visible Light
Length of Day
Tomorrow will be .
, % of the Moon is Illuminated

Today's Extremes

State Highs State Lows

Community

WunderPhotos

Upload Photos

1,819,135 photos uploaded!

WunderBlogs® & News

Nearby

Air Quality

  Air Quality AQ Index Pollutant
Not available.

Snow Depth

Station Depth Elevation

Earthquake Activity

City Distance Mag. Time & Date
Minimum magnitude displayed is 2.5.

Coastal Water Temperatures

Place Temperature

Stations

Nearby Weather Stations

Station Location Temp. Windchill Dew Point Humidity Wind Precip. Elev Updated Type